createdAt,value
2017-03-01T00:00:25.856Z,36.8
2017-03-01T00:02:58.479Z,36.9
2017-03-01T00:05:31.162Z,36.8
2017-03-01T00:08:04.176Z,36.8
2017-03-01T00:10:36.678Z,36.8
2017-03-01T00:13:09.171Z,36.9
2017-03-01T00:15:41.639Z,36.9
2017-03-01T00:18:14.150Z,36.9
2017-03-01T00:20:46.675Z,36.9
2017-03-01T00:23:19.919Z,37
2017-03-01T00:25:52.431Z,37
2017-03-01T00:28:25.212Z,37
2017-03-01T00:30:57.683Z,37
2017-03-01T00:33:30.168Z,37.2
2017-03-01T00:36:02.662Z,37.2
2017-03-01T00:38:35.165Z,37.2
2017-03-01T00:41:07.655Z,37.2
2017-03-01T00:43:40.150Z,37.2
2017-03-01T00:46:12.634Z,37.2
2017-03-01T00:48:45.520Z,37.1
2017-03-01T00:51:18.107Z,37.1
2017-03-01T00:53:50.589Z,37.2
2017-03-01T00:56:23.075Z,37.1
2017-03-01T00:58:55.575Z,37
2017-03-01T01:01:28.065Z,37
2017-03-01T01:04:00.557Z,37.1
2017-03-01T01:06:33.592Z,37
2017-03-01T01:09:06.065Z,37
2017-03-01T01:11:38.567Z,36.9
2017-03-01T01:14:11.046Z,37
2017-03-01T01:16:44.074Z,36.9
2017-03-01T01:19:16.804Z,37
2017-03-01T01:21:49.990Z,37
2017-03-01T01:24:22.484Z,37.1
2017-03-01T01:26:55.629Z,37
2017-03-01T01:29:28.391Z,37.1
2017-03-01T01:32:00.895Z,37.1
2017-03-01T01:34:33.750Z,37
2017-03-01T01:37:06.558Z,37.1
2017-03-01T01:39:39.058Z,37.1
2017-03-01T01:42:11.961Z,37.1
2017-03-01T01:44:44.444Z,37.1
2017-03-01T01:47:17.369Z,37.1
2017-03-01T01:49:50.264Z,37.2
2017-03-01T01:52:22.750Z,37.2
2017-03-01T01:54:55.240Z,37.2
2017-03-01T01:57:28.166Z,37.2
2017-03-01T02:00:01.122Z,37.2
2017-03-01T02:02:34.458Z,37.2
2017-03-01T02:05:07.390Z,37.3
2017-03-01T02:07:39.929Z,37.2
2017-03-01T02:10:12.420Z,37.2
2017-03-01T02:12:45.344Z,37.2
2017-03-01T02:15:17.844Z,37.2
2017-03-01T02:17:50.765Z,37.2
2017-03-01T02:20:23.266Z,37.3
2017-03-01T02:22:55.745Z,37.2
2017-03-01T02:25:28.237Z,37.2
2017-03-01T02:28:00.728Z,37.2
2017-03-01T02:30:34.207Z,37.2
2017-03-01T02:33:06.701Z,37.2
2017-03-01T02:35:39.192Z,37.2
2017-03-01T02:38:11.677Z,37.2
2017-03-01T02:40:44.158Z,37.1
2017-03-01T02:43:16.643Z,37.2
2017-03-01T02:45:49.560Z,37.2
2017-03-01T02:48:22.606Z,37.1
2017-03-01T02:50:55.497Z,37.2
2017-03-01T02:53:28.009Z,37.1
2017-03-01T02:56:00.925Z,37.2
2017-03-01T02:58:33.833Z,37.2
2017-03-01T03:01:06.741Z,37.2
2017-03-01T03:03:39.657Z,37.3
2017-03-01T03:06:12.149Z,37.3
2017-03-01T03:08:45.151Z,37.2
2017-03-01T03:11:17.664Z,37.2
2017-03-01T03:13:50.159Z,37.3
2017-03-01T03:16:23.636Z,37.2
2017-03-01T03:18:56.443Z,37.2
2017-03-01T03:21:28.934Z,37.3
2017-03-01T03:24:01.450Z,37.2
2017-03-01T03:26:33.959Z,37.2
2017-03-01T03:29:06.448Z,37.3
2017-03-01T03:31:38.943Z,37.2
2017-03-01T03:34:11.884Z,37.2
2017-03-01T03:36:44.396Z,37.2
2017-03-01T03:39:16.882Z,37.2
2017-03-01T03:41:49.391Z,37.2
2017-03-01T03:44:22.063Z,37.2
2017-03-01T03:46:54.557Z,37.2
2017-03-01T03:49:27.589Z,37.2
2017-03-01T03:52:00.073Z,37.3
2017-03-01T03:54:32.547Z,37.2
2017-03-01T03:57:05.052Z,37.3
2017-03-01T03:59:38.577Z,37.2
2017-03-01T04:02:11.954Z,37.2
2017-03-01T04:04:44.627Z,37.3
2017-03-01T04:07:17.142Z,37.3
2017-03-01T04:09:50.074Z,37.2
2017-03-01T04:12:22.992Z,37.3
2017-03-01T04:14:55.477Z,37.2
2017-03-01T04:17:27.956Z,37.3
2017-03-01T04:20:00.445Z,37.4
2017-03-01T04:22:32.930Z,37.3
2017-03-01T04:25:05.418Z,37.3
2017-03-01T04:27:37.899Z,37.2
2017-03-01T04:30:10.413Z,37.4
2017-03-01T04:32:43.756Z,37.3
2017-03-01T04:35:16.678Z,37.2
2017-03-01T04:37:49.161Z,37.3
2017-03-01T04:40:21.673Z,37.3
2017-03-01T04:42:54.165Z,37.3
2017-03-01T04:45:27.076Z,37.2
2017-03-01T04:47:59.559Z,37.2
2017-03-01T04:50:32.052Z,37.2
2017-03-01T04:53:04.968Z,37.2
2017-03-01T04:55:37.889Z,37.2
2017-03-01T04:58:10.406Z,37.2
2017-03-01T05:00:42.895Z,37.2
2017-03-01T05:03:15.385Z,37.2
2017-03-01T05:05:47.884Z,37.2
2017-03-01T05:08:20.382Z,37.2
2017-03-01T05:10:52.888Z,37.2
2017-03-01T05:13:25.361Z,37.3
2017-03-01T05:15:57.857Z,37.3
2017-03-01T05:18:30.348Z,37.3
2017-03-01T05:21:02.831Z,37.2
2017-03-01T05:23:35.759Z,37.2
2017-03-01T05:26:08.298Z,37.3
2017-03-01T05:28:40.777Z,37.2
2017-03-01T05:31:13.302Z,37.3
2017-03-01T05:33:45.803Z,37.3
2017-03-01T05:36:18.728Z,37.4
2017-03-01T05:38:51.223Z,37.4
2017-03-01T05:41:24.142Z,37.3
2017-03-01T05:43:56.843Z,37.4
2017-03-01T05:46:29.328Z,37.4
2017-03-01T05:49:01.824Z,37.4
2017-03-01T05:51:35.173Z,37.4
2017-03-01T05:54:07.683Z,37.4
2017-03-01T05:56:40.591Z,37.4
2017-03-01T05:59:13.072Z,37.4
2017-03-01T06:01:45.565Z,37.5
2017-03-01T06:04:18.055Z,37.4
2017-03-01T06:06:50.567Z,37.5
2017-03-01T06:09:23.050Z,37.5
2017-03-01T06:11:55.974Z,37.4
2017-03-01T06:14:28.460Z,37.5
2017-03-01T06:17:01.399Z,37.5
2017-03-01T06:19:34.295Z,37.4
2017-03-01T06:22:06.852Z,37.5
2017-03-01T06:24:39.338Z,37.5
2017-03-01T06:27:12.273Z,37.5
2017-03-01T06:29:45.185Z,37.5
2017-03-01T06:32:17.668Z,37.5
2017-03-01T06:34:51.020Z,37.5
2017-03-01T06:37:23.537Z,37.6
2017-03-01T06:39:56.025Z,37.5
2017-03-01T06:42:28.516Z,37.5
2017-03-01T06:45:01.048Z,37.6
2017-03-01T06:47:33.992Z,37.6
2017-03-01T06:50:06.485Z,37.6
2017-03-01T06:52:38.979Z,37.6
2017-03-01T06:55:11.886Z,37.6
2017-03-01T06:57:44.369Z,37.6
2017-03-01T07:00:16.911Z,37.6
2017-03-01T07:02:49.386Z,37.6
2017-03-01T07:05:21.885Z,37.6
2017-03-01T07:07:54.400Z,37.6
2017-03-01T07:10:26.896Z,37.6
2017-03-01T07:12:59.391Z,37.5
2017-03-01T07:15:31.908Z,37.6
2017-03-01T07:18:04.827Z,37.6
2017-03-01T07:20:37.326Z,37.6
2017-03-01T07:23:09.821Z,37.6
2017-03-01T07:25:42.386Z,37.6
2017-03-01T07:28:14.884Z,37.6
2017-03-01T07:30:47.386Z,37.6
2017-03-01T07:33:19.909Z,37.6
2017-03-01T07:35:52.418Z,37.5
2017-03-01T07:38:25.339Z,37.6
2017-03-01T07:40:58.017Z,37.6
2017-03-01T07:43:30.513Z,37.6
2017-03-01T07:46:03.012Z,37.6
2017-03-01T07:48:35.521Z,37.6
2017-03-01T07:51:08.024Z,37.6
2017-03-01T07:53:40.506Z,37.6
2017-03-01T07:56:13.007Z,37.6
2017-03-01T07:58:45.511Z,37.6
2017-03-01T08:01:18.871Z,37.6
2017-03-01T08:03:51.363Z,37.6
2017-03-01T08:06:23.857Z,37.6
2017-03-01T08:08:56.795Z,37.6
2017-03-01T08:11:29.303Z,37.6
2017-03-01T08:14:01.793Z,37.6
2017-03-01T08:16:34.293Z,37.6
2017-03-01T08:19:06.792Z,37.6
2017-03-01T08:21:39.716Z,37.6
2017-03-01T08:24:12.215Z,37.6
2017-03-01T08:26:44.702Z,37.6
2017-03-01T08:29:17.220Z,37.6
2017-03-01T08:31:49.727Z,37.6
2017-03-01T08:34:22.206Z,37.6
2017-03-01T08:36:54.692Z,37.6
2017-03-01T08:39:27.176Z,37.6
2017-03-01T08:42:00.111Z,37.6
2017-03-01T08:44:32.613Z,37.6
2017-03-01T08:47:05.112Z,37.6
2017-03-01T08:49:38.020Z,37.6
2017-03-01T08:52:10.522Z,37.6
2017-03-01T08:54:43.423Z,37.7
2017-03-01T08:57:15.915Z,37.7
2017-03-01T08:59:48.431Z,37.7
2017-03-01T09:02:20.905Z,37.7
2017-03-01T09:04:53.595Z,37.7
2017-03-01T09:07:26.083Z,37.6
2017-03-01T09:09:58.567Z,37.7
2017-03-01T09:12:31.075Z,37.7
2017-03-01T09:15:03.558Z,37.6
2017-03-01T09:17:36.463Z,37.6
2017-03-01T09:20:08.959Z,37.6
2017-03-01T09:22:41.443Z,37.6
2017-03-01T09:25:13.964Z,37.6
2017-03-01T09:27:46.456Z,37.5
2017-03-01T09:30:18.953Z,37.6
2017-03-01T09:32:51.418Z,37.6
2017-03-01T09:35:23.898Z,37.6
2017-03-01T09:37:56.377Z,37.5
2017-03-01T09:40:28.857Z,37.6
2017-03-01T09:43:01.785Z,37.5
2017-03-01T09:45:34.692Z,37.5
2017-03-01T09:48:07.607Z,37.5
2017-03-01T09:50:40.104Z,37.6
2017-03-01T09:53:13.038Z,37.6
2017-03-01T09:55:45.541Z,37.6
2017-03-01T09:58:18.032Z,37.6
2017-03-01T10:00:50.551Z,37.6
2017-03-01T10:03:23.057Z,37.6
2017-03-01T10:05:55.547Z,34.1
2017-03-01T10:08:28.075Z,33
2017-03-01T10:11:00.648Z,31.6
2017-03-01T10:13:33.155Z,31.4
2017-03-01T10:16:06.104Z,32.1
2017-03-01T10:18:39.043Z,32.9
2017-03-01T10:21:11.956Z,34.6
2017-03-01T10:23:44.507Z,35.2
2017-03-01T10:26:17.012Z,35.5
2017-03-01T10:28:49.505Z,35.7
2017-03-01T10:31:21.983Z,35.8
2017-03-01T10:33:54.657Z,35.9
2017-03-01T10:36:27.147Z,36
2017-03-01T10:38:59.644Z,36.1
2017-03-01T10:41:32.132Z,36.1
2017-03-01T10:44:05.050Z,36.1
2017-03-01T10:46:37.985Z,36
2017-03-01T10:49:10.819Z,36.1
2017-03-01T10:51:43.730Z,36.4
2017-03-01T10:54:16.447Z,36.3
2017-03-01T10:56:48.969Z,36.4
2017-03-01T10:59:21.445Z,36.3
2017-03-01T11:01:53.941Z,36.2
2017-03-01T11:04:26.446Z,36.1
2017-03-01T11:06:59.444Z,36.2
2017-03-01T11:09:31.940Z,36.3
2017-03-01T11:12:04.429Z,36.3
2017-03-01T11:14:36.926Z,36.4
2017-03-01T11:17:09.401Z,36.4
2017-03-01T11:19:41.886Z,36.4
2017-03-01T11:22:14.373Z,36.4
2017-03-01T11:24:47.052Z,36.4
2017-03-01T11:27:19.557Z,36.5
2017-03-01T11:29:52.054Z,36.4
2017-03-01T11:32:25.097Z,36.5
2017-03-01T11:34:57.728Z,36.5
2017-03-01T11:37:30.239Z,36.4
2017-03-01T11:40:03.280Z,36.4
2017-03-01T11:42:36.203Z,36.5
2017-03-01T11:45:08.696Z,36.4
2017-03-01T11:47:41.186Z,36.4
2017-03-01T11:50:13.685Z,36.4
2017-03-01T11:52:46.219Z,36.4
2017-03-01T11:55:18.736Z,36.2
2017-03-01T11:57:51.225Z,36.2
2017-03-01T12:00:23.712Z,36.3
2017-03-01T12:02:56.185Z,36.3
2017-03-01T12:05:28.677Z,36.4
2017-03-01T12:08:01.160Z,36.6
2017-03-01T12:10:33.659Z,36.5
2017-03-01T12:13:06.128Z,33.2
2017-03-01T12:15:39.075Z,31.8
2017-03-01T12:18:12.057Z,33.3
2017-03-01T12:20:45.714Z,34.2
2017-03-01T12:23:18.345Z,35
2017-03-01T12:25:51.261Z,35.4
2017-03-01T12:28:23.765Z,35.5
2017-03-01T12:30:56.725Z,35.8
2017-03-01T12:33:29.329Z,35.8
2017-03-01T12:36:01.840Z,36
2017-03-01T12:38:34.762Z,36
2017-03-01T12:41:07.419Z,35.9
2017-03-01T12:43:40.352Z,35.8
2017-03-01T12:46:12.869Z,35.9
2017-03-01T12:48:45.358Z,36
2017-03-01T12:51:17.903Z,35.9
2017-03-01T12:53:50.883Z,35.9
2017-03-01T12:56:23.378Z,36
2017-03-01T12:58:55.889Z,36
2017-03-01T13:01:28.376Z,36.1
2017-03-01T13:04:01.288Z,36
2017-03-01T13:06:33.780Z,36.1
2017-03-01T13:09:06.607Z,36.1
2017-03-01T13:11:39.147Z,36.3
2017-03-01T13:14:11.635Z,36.3
2017-03-01T13:16:44.139Z,36.3
2017-03-01T13:19:16.638Z,36.4
2017-03-01T13:21:49.147Z,36.4
2017-03-01T13:24:21.630Z,36.4
2017-03-01T13:26:54.142Z,36.4
2017-03-01T13:29:26.623Z,36.4
2017-03-01T13:31:59.148Z,36.4
2017-03-01T13:34:32.089Z,36.5
2017-03-01T13:37:04.590Z,36.5
2017-03-01T13:39:37.078Z,36.5
2017-03-01T13:42:09.571Z,36.6
2017-03-01T13:44:42.075Z,34.3
2017-03-01T13:47:14.572Z,33.7
2017-03-01T13:49:47.078Z,35.3
2017-03-01T13:52:19.973Z,36
2017-03-01T13:54:52.465Z,36
2017-03-01T13:57:25.001Z,35.2
2017-03-01T13:59:57.500Z,33.7
2017-03-01T14:02:30.416Z,34.5
2017-03-01T14:05:03.944Z,35.6
2017-03-01T14:07:37.093Z,36
2017-03-01T14:10:10.038Z,36.2
2017-03-01T14:12:42.564Z,36.4
2017-03-01T14:15:15.105Z,36.5
2017-03-01T14:17:47.693Z,36.5
2017-03-01T14:20:20.391Z,36.6
2017-03-01T14:22:53.971Z,36.6
2017-03-01T14:25:26.488Z,36.6
2017-03-01T14:27:59.406Z,36.5
2017-03-01T14:30:31.885Z,36.5
2017-03-01T14:33:04.366Z,36.7
2017-03-01T14:35:36.865Z,36.7
2017-03-01T14:38:09.364Z,36.7
2017-03-01T14:40:41.865Z,36.7
2017-03-01T14:43:14.365Z,36.8
2017-03-01T14:45:46.856Z,36.8
2017-03-01T14:48:19.370Z,36.8
2017-03-01T14:50:52.910Z,36.8
2017-03-01T14:53:25.402Z,36.8
2017-03-01T14:55:57.910Z,37
2017-03-01T14:58:30.400Z,36.9
2017-03-01T15:01:02.915Z,36.9
2017-03-01T15:03:35.424Z,36.8
2017-03-01T15:06:07.925Z,36.8
2017-03-01T15:08:40.880Z,36.8
2017-03-01T15:11:13.370Z,36.8
2017-03-01T15:13:47.159Z,36.8
2017-03-01T15:16:20.062Z,35.6
2017-03-01T15:18:52.574Z,34.9
2017-03-01T15:21:25.084Z,34.6
2017-03-01T15:23:57.575Z,35.2
2017-03-01T15:26:30.077Z,35.9
2017-03-01T15:29:02.585Z,36.3
2017-03-01T15:31:35.079Z,36.5
2017-03-01T15:34:07.572Z,36.6
2017-03-01T15:36:40.076Z,36.7
2017-03-01T15:39:12.565Z,36.6
2017-03-01T15:41:45.055Z,36.8
2017-03-01T15:44:17.547Z,36.7
2017-03-01T15:46:50.270Z,36.7
2017-03-01T15:49:22.750Z,36.7
2017-03-01T15:51:55.251Z,36.6
2017-03-01T15:54:28.169Z,36.7
2017-03-01T15:57:01.676Z,36.6
2017-03-01T15:59:34.172Z,36.6
2017-03-01T16:02:06.660Z,36.7
2017-03-01T16:04:39.673Z,36.6
2017-03-01T16:07:12.607Z,36.7
2017-03-01T16:09:45.256Z,36.8
2017-03-01T16:12:17.743Z,36.8
2017-03-01T16:14:50.237Z,36.8
2017-03-01T16:17:23.163Z,36.8
2017-03-01T16:19:55.657Z,36.8
2017-03-01T16:22:28.132Z,36.8
2017-03-01T16:25:00.605Z,36.9
2017-03-01T16:27:33.125Z,36.9
2017-03-01T16:30:05.608Z,36.9
2017-03-01T16:32:38.113Z,36.9
2017-03-01T16:35:11.034Z,37
2017-03-01T16:37:43.522Z,37.1
2017-03-01T16:40:16.008Z,37.1
2017-03-01T16:42:48.916Z,37.1
2017-03-01T16:45:21.396Z,37.1
2017-03-01T16:47:53.880Z,37.2
2017-03-01T16:50:26.383Z,37.2
2017-03-01T16:52:58.877Z,37.1
2017-03-01T16:55:31.365Z,37.1
2017-03-01T16:58:04.285Z,37.1
2017-03-01T17:00:36.796Z,37.2
2017-03-01T17:03:09.318Z,37.1
2017-03-01T17:05:41.821Z,37.1
2017-03-01T17:08:14.739Z,37.1
2017-03-01T17:10:47.233Z,37.2
2017-03-01T17:13:19.733Z,37.3
2017-03-01T17:15:52.273Z,37.2
2017-03-01T17:18:24.755Z,37.3
2017-03-01T17:20:57.241Z,37.3
2017-03-01T17:23:29.734Z,37.3
2017-03-01T17:26:02.641Z,37.4
2017-03-01T17:28:35.127Z,37.4
2017-03-01T17:31:07.621Z,37.4
2017-03-01T17:33:40.531Z,37.5
2017-03-01T17:36:13.029Z,37.5
2017-03-01T17:38:45.513Z,37.6
2017-03-01T17:41:18.462Z,37.6
2017-03-01T17:43:50.953Z,37.7
2017-03-01T17:46:23.465Z,37.6
2017-03-01T17:48:55.955Z,37.6
2017-03-01T17:51:29.285Z,37.6
2017-03-01T17:54:02.194Z,37.6
2017-03-01T17:56:34.693Z,37.6
2017-03-01T17:59:07.183Z,37.6
2017-03-01T18:01:39.676Z,37.6
2017-03-01T18:04:12.764Z,37.5
2017-03-01T18:06:45.275Z,37.5
2017-03-01T18:09:17.962Z,37.4
2017-03-01T18:11:50.676Z,37.4
2017-03-01T18:14:23.170Z,37.4
2017-03-01T18:16:56.099Z,37.4
2017-03-01T18:19:28.577Z,37.4
2017-03-01T18:22:01.499Z,37.4
2017-03-01T18:24:34.417Z,37.3
2017-03-01T18:27:06.922Z,37.3
2017-03-01T18:29:39.862Z,37.4
2017-03-01T18:32:12.369Z,37.3
2017-03-01T18:34:44.845Z,37.4
2017-03-01T18:37:17.343Z,37.4
2017-03-01T18:39:50.135Z,37.3
2017-03-01T18:42:22.625Z,37.3
2017-03-01T18:44:55.129Z,37.3
2017-03-01T18:47:27.608Z,37.3
2017-03-01T18:50:00.502Z,37.3
2017-03-01T18:52:32.991Z,37.3
2017-03-01T18:55:05.473Z,37.3
2017-03-01T18:57:38.394Z,37.4
2017-03-01T19:00:10.855Z,37.4
2017-03-01T19:02:43.350Z,37.4
2017-03-01T19:05:16.281Z,37.4
2017-03-01T19:07:48.786Z,37.4
2017-03-01T19:10:21.289Z,37.4
2017-03-01T19:12:53.773Z,37.4
2017-03-01T19:15:26.278Z,37.2
2017-03-01T19:17:58.775Z,37.3
2017-03-01T19:20:31.253Z,37.3
2017-03-01T19:23:03.770Z,37.3
2017-03-01T19:25:36.309Z,37.4
2017-03-01T19:28:09.249Z,37.4
2017-03-01T19:30:41.748Z,37.5
2017-03-01T19:33:14.239Z,37.4
2017-03-01T19:35:46.884Z,37.5
2017-03-01T19:38:19.376Z,37.6
2017-03-01T19:40:51.875Z,37.5
2017-03-01T19:43:24.379Z,37.5
2017-03-01T19:45:56.883Z,37.5
2017-03-01T19:48:29.788Z,37.6
2017-03-01T19:51:02.721Z,37.5
2017-03-01T19:53:35.235Z,37.3
2017-03-01T19:56:07.742Z,37.4
2017-03-01T19:58:40.690Z,37.3
2017-03-01T20:01:13.179Z,37.3
2017-03-01T20:03:45.679Z,37.3
2017-03-01T20:06:18.602Z,37.3
2017-03-01T20:08:51.121Z,37.3
2017-03-01T20:11:23.618Z,37.3
2017-03-01T20:13:56.548Z,37.2
2017-03-01T20:16:29.235Z,37.2
2017-03-01T20:19:02.161Z,37.2
2017-03-01T20:21:35.091Z,37.2
2017-03-01T20:24:07.576Z,37.3
2017-03-01T20:26:40.080Z,37.2
2017-03-01T20:29:12.569Z,37.3
2017-03-01T20:31:45.490Z,37.2
2017-03-01T20:34:17.971Z,37.2
2017-03-01T20:36:50.890Z,37.2
2017-03-01T20:39:23.384Z,37.2
2017-03-01T20:41:56.303Z,37.2
2017-03-01T20:44:29.223Z,37.2
2017-03-01T20:47:02.169Z,37.2
2017-03-01T20:49:34.651Z,37.2
2017-03-01T20:52:07.165Z,37.2
2017-03-01T20:54:39.697Z,37.2
2017-03-01T20:57:12.619Z,37.1
2017-03-01T20:59:45.113Z,37.2
2017-03-01T21:02:17.609Z,37.2
2017-03-01T21:04:50.124Z,37.2
2017-03-01T21:07:22.624Z,37.2
2017-03-01T21:09:55.138Z,37.2
2017-03-01T21:12:27.665Z,37.1
2017-03-01T21:15:00.172Z,37.2
2017-03-01T21:17:32.679Z,37.2
2017-03-01T21:20:05.576Z,37.2
2017-03-01T21:22:38.072Z,37.2
2017-03-01T21:25:10.576Z,37.2
2017-03-01T21:27:43.052Z,37.2
2017-03-01T21:30:15.519Z,37.2
2017-03-01T21:32:48.044Z,37.2
2017-03-01T21:35:21.205Z,37.2
2017-03-01T21:37:53.724Z,37.2
2017-03-01T21:40:26.242Z,37.2
2017-03-01T21:42:58.735Z,37.2
2017-03-01T21:45:31.265Z,37.2
2017-03-01T21:48:04.175Z,37.2
2017-03-01T21:50:36.660Z,37.2
2017-03-01T21:53:09.156Z,37.2
2017-03-01T21:55:41.628Z,37.1
2017-03-01T21:58:14.561Z,37.1
2017-03-01T22:00:47.075Z,37.2
2017-03-01T22:03:19.574Z,37.2
2017-03-01T22:05:52.061Z,37.2
2017-03-01T22:08:24.553Z,37.2
2017-03-01T22:10:57.038Z,37.1
2017-03-01T22:13:29.736Z,37.1
2017-03-01T22:16:02.210Z,37.1
2017-03-01T22:18:34.703Z,37.1
2017-03-01T22:21:07.628Z,37.1
2017-03-01T22:23:40.127Z,37.1
2017-03-01T22:26:12.606Z,37.1
2017-03-01T22:28:45.104Z,37.2
2017-03-01T22:31:18.032Z,37.2
2017-03-01T22:33:50.521Z,37.1
2017-03-01T22:36:23.910Z,37.1
2017-03-01T22:38:56.401Z,37.1
2017-03-01T22:41:28.901Z,37.1
2017-03-01T22:44:01.426Z,37.1
2017-03-01T22:46:33.902Z,37.2
2017-03-01T22:49:06.386Z,37.2
2017-03-01T22:51:39.747Z,37.1
2017-03-01T22:54:12.232Z,37.1
2017-03-01T22:56:45.143Z,37.1
2017-03-01T22:59:17.642Z,37.2
2017-03-01T23:01:50.970Z,37.1
2017-03-01T23:04:23.867Z,37.2
2017-03-01T23:06:56.357Z,37.2
2017-03-01T23:09:29.712Z,37.2
2017-03-01T23:12:02.227Z,37.1
2017-03-01T23:14:34.732Z,37.2
2017-03-01T23:17:07.651Z,37.2
2017-03-01T23:19:40.376Z,37.1
2017-03-01T23:22:12.857Z,37
2017-03-01T23:24:45.378Z,37
2017-03-01T23:27:17.875Z,37.1
2017-03-01T23:29:50.787Z,37.1
2017-03-01T23:32:23.257Z,37
2017-03-01T23:34:56.603Z,37.1
2017-03-01T23:37:29.164Z,37.1
2017-03-01T23:40:01.654Z,37.1
2017-03-01T23:42:34.996Z,37.1
2017-03-01T23:45:07.498Z,37.1
2017-03-01T23:47:39.986Z,37.1
2017-03-01T23:50:12.474Z,37
2017-03-01T23:52:44.953Z,37
2017-03-01T23:55:17.860Z,37
2017-03-01T23:57:50.370Z,37
